Norfolk, Virginia
Traffic Map
Current Weather Conditions
Norfolk, Virginia
Broken Clouds
Broken Clouds
30°
Feels Like: 34°
Wind Chill: 30° Ceiling: 6500
Heat Index: 34° Visibility: 10mi
Dew Point: 23° Wind: 6mph
Humidity: 65% Direction: 10° (N)
Pressure: 29.86in Gusts: 0mph
Raw Report DataKORF 291751Z 01005KT 10SM SCT037 BKN065 30/23 A2986 RMK AO2 SLP110 T03000228 10322 20278 57003
Traffic Incident Summary
Active as of:
Severity:
Category:
InformationThere was an issue retrieving the traffic information for this location. Please try a different location or try again shortly.
Advertisements
Track Severe Weather on mobile